createdAt,value
2023-05-06T00:02:06.268Z,2.17
2023-05-06T00:04:33.368Z,1.52
2023-05-06T00:06:59.961Z,3.25
2023-05-06T00:09:26.556Z,2.30
2023-05-06T00:11:53.000Z,3.57
2023-05-06T00:14:19.637Z,2.17
2023-05-06T00:16:46.043Z,2.83
2023-05-06T00:19:12.541Z,4.68
2023-05-06T00:21:39.114Z,3.80
2023-05-06T00:24:05.885Z,3.07
2023-05-06T00:26:32.442Z,3.65
2023-05-06T00:28:59.022Z,5.68
2023-05-06T00:31:25.531Z,2.17
2023-05-06T00:33:51.998Z,4.95
2023-05-06T00:36:18.686Z,3.50
2023-05-06T00:38:45.210Z,2.03
2023-05-06T00:41:11.559Z,2.70
2023-05-06T00:43:38.123Z,3.53
2023-05-06T00:46:05.461Z,3.70
2023-05-06T00:48:32.312Z,3.80
2023-05-06T00:50:58.887Z,2.70
2023-05-06T00:53:25.313Z,5.40
2023-05-06T00:55:51.918Z,3.70
2023-05-06T00:58:20.142Z,4.07
2023-05-06T01:00:46.936Z,3.30
2023-05-06T01:03:13.458Z,4.43
2023-05-06T01:06:01.731Z,8.77
2023-05-06T01:09:08.723Z,4.55
2023-05-06T01:11:45.852Z,2.85
2023-05-06T01:14:26.340Z,4.53
2023-05-06T01:16:55.096Z,3.35
2023-05-06T01:19:42.046Z,3.45
2023-05-06T01:22:10.494Z,3.65
2023-05-06T01:24:41.825Z,3.78
2023-05-06T01:27:09.409Z,3.73
2023-05-06T01:29:37.907Z,4.88
2023-05-06T01:32:19.232Z,5.32
2023-05-06T01:34:49.512Z,3.80
2023-05-06T01:37:34.653Z,3.78
2023-05-06T01:40:04.082Z,8.27
2023-05-06T01:42:32.375Z,5.32
2023-05-06T01:45:03.037Z,5.13
2023-05-06T01:47:30.246Z,6.07
2023-05-06T01:49:57.676Z,7.53
2023-05-06T01:52:26.006Z,4.90
2023-05-06T01:54:52.388Z,5.53
2023-05-06T01:57:18.880Z,4.75
2023-05-06T01:59:45.239Z,3.15
2023-05-06T02:02:11.668Z,3.30
2023-05-06T02:04:38.080Z,3.57
2023-05-06T02:07:04.908Z,3.65
2023-05-06T02:09:31.437Z,3.50
2023-05-06T02:11:57.881Z,4.07
2023-05-06T02:14:24.525Z,3.70
2023-05-06T02:16:51.217Z,3.00
2023-05-06T02:19:17.877Z,3.00
2023-05-06T02:21:44.274Z,2.47
2023-05-06T02:24:10.678Z,4.13
2023-05-06T02:26:37.196Z,3.90
2023-05-06T02:29:03.816Z,3.03
2023-05-06T02:31:30.795Z,2.80
2023-05-06T02:33:57.492Z,10.02
2023-05-06T02:36:24.092Z,3.22
2023-05-06T02:38:50.566Z,3.38
2023-05-06T02:41:17.140Z,4.30
2023-05-06T02:43:43.807Z,3.72
2023-05-06T02:46:10.508Z,2.70
2023-05-06T02:48:36.928Z,2.72
2023-05-06T02:51:03.488Z,4.38
2023-05-06T02:53:29.991Z,4.70
2023-05-06T02:55:56.505Z,3.05
2023-05-06T02:58:23.094Z,2.50
2023-05-06T03:00:49.649Z,2.90
2023-05-06T03:03:17.517Z,3.42
2023-05-06T03:05:44.001Z,3.43
2023-05-06T03:08:10.555Z,2.72
2023-05-06T03:10:36.964Z,2.53
2023-05-06T03:13:03.578Z,2.88
2023-05-06T03:15:30.295Z,2.42
2023-05-06T03:17:56.928Z,3.90
2023-05-06T03:20:23.478Z,5.95
2023-05-06T03:22:50.193Z,3.63
2023-05-06T03:25:16.610Z,2.97
2023-05-06T03:27:43.043Z,3.30
2023-05-06T03:30:10.387Z,4.43
2023-05-06T03:32:37.868Z,3.17
2023-05-06T03:35:04.787Z,3.40
2023-05-06T03:37:31.246Z,5.10
2023-05-06T03:39:57.605Z,6.53
2023-05-06T03:42:24.239Z,18.33
2023-05-06T03:44:50.670Z,4.63
2023-05-06T03:47:17.272Z,10.88
2023-05-06T03:49:43.653Z,16.08
2023-05-06T03:52:10.115Z,4.65
2023-05-06T03:54:36.833Z,18.33
2023-05-06T03:57:03.349Z,4.70
2023-05-06T03:59:29.925Z,10.32
2023-05-06T04:01:56.587Z,7.72
2023-05-06T04:04:23.248Z,7.82
2023-05-06T04:06:49.615Z,4.63
2023-05-06T04:09:16.098Z,4.18
2023-05-06T04:11:42.543Z,9.70
2023-05-06T04:14:08.962Z,7.75
2023-05-06T04:16:36.038Z,4.32
2023-05-06T04:19:06.250Z,4.07
2023-05-06T04:21:33.211Z,6.07
2023-05-06T04:23:59.635Z,4.22
2023-05-06T04:26:26.152Z,3.47
2023-05-06T04:28:52.661Z,5.35
2023-05-06T04:31:19.311Z,5.27
2023-05-06T04:33:45.873Z,5.82
2023-05-06T04:36:12.926Z,4.25
2023-05-06T04:38:39.332Z,4.93
2023-05-06T04:41:05.759Z,5.78
2023-05-06T04:43:32.951Z,8.77
2023-05-06T04:45:59.525Z,6.32
2023-05-06T04:48:26.305Z,5.05
2023-05-06T04:50:52.963Z,7.50
2023-05-06T04:53:19.396Z,8.95
2023-05-06T04:55:45.819Z,8.73
2023-05-06T04:58:12.263Z,9.65
2023-05-06T05:00:38.898Z,10.85
2023-05-06T05:03:05.606Z,7.00
2023-05-06T05:05:33.204Z,9.68
2023-05-06T05:07:59.911Z,6.90
2023-05-06T05:10:26.476Z,25.42
2023-05-06T05:12:52.946Z,6.20
2023-05-06T05:15:21.033Z,12.25
2023-05-06T05:17:47.913Z,21.67
2023-05-06T05:20:14.434Z,7.73
2023-05-06T05:22:41.238Z,15.98
2023-05-06T05:25:08.609Z,21.58
2023-05-06T05:27:35.363Z,35.10
2023-05-06T05:30:01.827Z,40.83
2023-05-06T05:32:28.359Z,18.80
2023-05-06T05:34:55.035Z,9.50
2023-05-06T05:37:21.530Z,30.92
2023-05-06T05:39:48.155Z,10.93
2023-05-06T05:42:14.608Z,25.90
2023-05-06T05:44:41.050Z,9.53
2023-05-06T05:47:07.482Z,8.30
2023-05-06T05:49:33.938Z,9.25
2023-05-06T05:52:00.439Z,8.70
2023-05-06T05:54:27.077Z,9.00
2023-05-06T05:56:53.671Z,8.83
2023-05-06T05:59:20.037Z,8.20
2023-05-06T06:01:46.457Z,9.15
2023-05-06T06:04:13.019Z,9.95
2023-05-06T06:06:39.501Z,8.40
2023-05-06T06:09:06.512Z,10.93
2023-05-06T06:11:33.213Z,9.65
2023-05-06T06:13:59.648Z,10.57
2023-05-06T06:16:26.129Z,11.55
2023-05-06T06:18:53.724Z,12.13
2023-05-06T06:21:20.341Z,12.97
2023-05-06T06:23:47.113Z,10.93
2023-05-06T06:26:13.556Z,12.23
2023-05-06T06:28:40.061Z,11.45
2023-05-06T06:31:06.551Z,12.82
2023-05-06T06:33:33.075Z,12.40
2023-05-06T06:35:59.754Z,13.02
2023-05-06T06:38:26.202Z,11.40
2023-05-06T06:40:52.778Z,15.13
2023-05-06T06:43:20.093Z,11.27
2023-05-06T06:45:50.008Z,11.50
2023-05-06T06:48:16.954Z,11.25
2023-05-06T06:50:43.748Z,13.20
2023-05-06T06:53:10.457Z,13.25
2023-05-06T06:55:36.844Z,13.82
2023-05-06T06:58:03.285Z,14.00
2023-05-06T07:00:29.709Z,14.00
2023-05-06T07:02:56.220Z,16.10
2023-05-06T07:05:22.957Z,14.20
2023-05-06T07:07:49.330Z,17.17
2023-05-06T07:10:15.910Z,13.10
2023-05-06T07:12:42.375Z,12.30
2023-05-06T07:15:09.436Z,12.65
2023-05-06T07:17:36.237Z,13.13
2023-05-06T07:20:02.836Z,12.38
2023-05-06T07:22:29.491Z,13.00
2023-05-06T07:24:55.980Z,12.85
2023-05-06T07:27:24.082Z,13.18
2023-05-06T07:29:50.890Z,11.63
2023-05-06T07:32:17.615Z,11.00
2023-05-06T07:34:44.217Z,14.80
2023-05-06T07:37:10.649Z,15.25
2023-05-06T07:39:37.128Z,13.77
2023-05-06T07:42:03.622Z,13.23
2023-05-06T07:44:29.974Z,14.25
2023-05-06T07:46:56.762Z,16.50
2023-05-06T07:49:24.110Z,13.30
2023-05-06T07:51:50.594Z,11.85
2023-05-06T07:54:17.082Z,12.98
2023-05-06T07:56:44.082Z,14.55
2023-05-06T07:59:10.608Z,13.90
2023-05-06T08:01:37.288Z,16.65
2023-05-06T08:04:04.109Z,14.50
2023-05-06T08:06:30.745Z,16.92
2023-05-06T08:08:57.510Z,13.20
2023-05-06T08:11:23.952Z,15.32
2023-05-06T08:13:50.549Z,14.68
2023-05-06T08:16:17.479Z,14.98
2023-05-06T08:18:43.903Z,14.68
2023-05-06T08:21:10.964Z,13.88
2023-05-06T08:23:37.800Z,12.97
2023-05-06T08:26:04.528Z,13.82
2023-05-06T08:28:31.513Z,14.13
2023-05-06T08:30:58.079Z,16.38
2023-05-06T08:33:24.453Z,14.55
2023-05-06T08:35:51.018Z,15.27
2023-05-06T08:38:17.418Z,15.73
2023-05-06T08:40:44.896Z,13.73
2023-05-06T08:43:13.566Z,13.60
2023-05-06T08:45:41.803Z,14.73
2023-05-06T08:48:09.222Z,16.25
2023-05-06T08:50:40.835Z,13.73
2023-05-06T08:53:07.549Z,16.60
2023-05-06T08:55:34.165Z,15.85
2023-05-06T08:58:01.133Z,17.10
2023-05-06T09:00:27.648Z,14.02
2023-05-06T09:02:54.323Z,15.63
2023-05-06T09:05:21.114Z,13.93
2023-05-06T09:07:47.747Z,16.85
2023-05-06T09:10:14.713Z,19.15
2023-05-06T09:12:41.508Z,17.92
2023-05-06T09:15:09.720Z,22.07
2023-05-06T09:17:36.795Z,21.40
2023-05-06T09:20:03.841Z,16.67
2023-05-06T09:22:31.333Z,21.52
2023-05-06T09:24:58.789Z,15.98
2023-05-06T09:27:31.274Z,13.30
2023-05-06T09:30:05.271Z,12.10
2023-05-06T09:32:32.424Z,14.35
2023-05-06T09:34:58.876Z,12.57
2023-05-06T09:37:28.256Z,10.32
2023-05-06T09:39:56.533Z,10.37
2023-05-06T09:42:27.837Z,11.02
2023-05-06T09:44:58.162Z,14.38
2023-05-06T09:47:31.165Z,12.48
2023-05-06T09:50:04.519Z,13.18
2023-05-06T09:52:31.684Z,12.50
2023-05-06T09:54:59.271Z,13.32
2023-05-06T09:57:26.022Z,12.55
2023-05-06T09:59:54.197Z,16.95
2023-05-06T10:02:23.604Z,11.93
2023-05-06T10:04:51.151Z,13.27
2023-05-06T10:07:23.476Z,13.07
2023-05-06T10:09:51.402Z,13.48
2023-05-06T10:12:20.117Z,12.57
2023-05-06T10:14:47.425Z,12.90
2023-05-06T10:17:14.334Z,13.07
2023-05-06T10:19:45.003Z,11.27
2023-05-06T10:22:30.402Z,11.48
2023-05-06T10:25:05.752Z,12.27
2023-05-06T10:27:41.129Z,11.85
2023-05-06T10:30:10.318Z,11.33
2023-05-06T10:32:41.921Z,12.95
2023-05-06T10:35:20.439Z,14.35
2023-05-06T10:37:49.074Z,12.43
2023-05-06T10:40:15.846Z,11.82
2023-05-06T10:42:42.343Z,13.37
2023-05-06T10:45:19.544Z,6.97
2023-05-06T10:47:58.567Z,11.27
2023-05-06T10:50:39.171Z,9.25
2023-05-06T10:53:11.831Z,9.63
2023-05-06T10:55:38.436Z,9.47
2023-05-06T10:58:19.006Z,6.88
2023-05-06T11:00:55.565Z,6.70
2023-05-06T11:03:23.840Z,6.30
2023-05-06T11:05:52.090Z,4.97
2023-05-06T11:08:23.608Z,7.53
2023-05-06T11:10:50.131Z,4.60
2023-05-06T11:13:27.547Z,4.57
2023-05-06T11:15:58.291Z,6.80
2023-05-06T11:18:24.675Z,6.32
2023-05-06T11:21:12.586Z,8.47
2023-05-06T11:23:42.149Z,6.85
2023-05-06T11:26:09.509Z,9.10
2023-05-06T11:28:36.250Z,18.88
2023-05-06T11:31:03.182Z,6.90
2023-05-06T11:33:34.143Z,10.27
2023-05-06T11:36:01.622Z,5.55
2023-05-06T11:38:49.610Z,5.97
2023-05-06T11:41:17.240Z,7.55
2023-05-06T11:43:53.672Z,6.50
2023-05-06T11:46:21.961Z,6.47
2023-05-06T11:48:48.815Z,8.93
2023-05-06T11:51:16.270Z,7.35
2023-05-06T11:53:42.879Z,7.13
2023-05-06T11:56:09.321Z,6.50
2023-05-06T11:58:36.213Z,4.43
2023-05-06T12:01:04.445Z,4.93
2023-05-06T12:03:32.803Z,6.03
2023-05-06T12:06:00.204Z,7.15
2023-05-06T12:08:34.965Z,7.63
2023-05-06T12:11:03.760Z,7.17
2023-05-06T12:13:30.855Z,7.60
2023-05-06T12:16:01.540Z,5.88
2023-05-06T12:18:28.809Z,4.57
2023-05-06T12:21:00.581Z,5.32
2023-05-06T12:23:27.220Z,9.00
2023-05-06T12:26:02.631Z,4.60
2023-05-06T12:28:30.886Z,4.93
2023-05-06T12:30:57.380Z,4.25
2023-05-06T12:33:23.815Z,5.47
2023-05-06T12:35:51.630Z,4.20
2023-05-06T12:38:18.307Z,5.88
2023-05-06T12:40:52.685Z,6.53
2023-05-06T12:43:19.212Z,8.95
2023-05-06T12:46:05.910Z,14.45
2023-05-06T12:48:32.507Z,8.27
2023-05-06T12:50:58.988Z,8.00
2023-05-06T12:53:34.136Z,7.53
2023-05-06T12:56:00.936Z,7.60
2023-05-06T12:58:27.411Z,7.25
2023-05-06T13:00:53.973Z,7.93
2023-05-06T13:03:21.275Z,7.85
2023-05-06T13:05:50.108Z,9.93
2023-05-06T13:08:16.639Z,9.90
2023-05-06T13:10:43.241Z,7.80
2023-05-06T13:13:09.675Z,6.17
2023-05-06T13:15:36.378Z,7.00
2023-05-06T13:18:03.315Z,5.78
2023-05-06T13:20:30.443Z,6.85
2023-05-06T13:22:56.905Z,6.10
2023-05-06T13:25:23.409Z,5.93
2023-05-06T13:27:49.947Z,6.93
2023-05-06T13:30:17.030Z,9.25
2023-05-06T13:32:43.600Z,6.70
2023-05-06T13:35:10.467Z,5.78
2023-05-06T13:37:37.101Z,5.17
2023-05-06T13:40:04.862Z,5.20
2023-05-06T13:42:31.258Z,5.93
2023-05-06T13:44:57.671Z,5.55
2023-05-06T13:47:24.305Z,2.97
2023-05-06T13:49:51.176Z,5.50
2023-05-06T13:52:17.648Z,5.97
2023-05-06T13:54:44.920Z,5.15
2023-05-06T13:57:11.507Z,4.90
2023-05-06T13:59:37.897Z,2.90
2023-05-06T14:02:08.212Z,2.77
2023-05-06T14:04:36.184Z,3.25
2023-05-06T14:07:02.700Z,2.25
2023-05-06T14:09:29.218Z,5.40
2023-05-06T14:11:55.777Z,3.40
2023-05-06T14:14:22.184Z,3.47
2023-05-06T14:16:48.634Z,2.20
2023-05-06T14:19:15.125Z,3.22
2023-05-06T14:21:41.573Z,5.88
2023-05-06T14:24:08.368Z,3.58
2023-05-06T14:26:34.825Z,2.40
2023-05-06T14:29:01.375Z,2.75
2023-05-06T14:31:29.522Z,2.28
2023-05-06T14:33:56.630Z,2.50
2023-05-06T14:36:29.572Z,2.42
2023-05-06T14:38:56.168Z,2.40
2023-05-06T14:41:22.798Z,2.42
2023-05-06T14:43:49.326Z,1.42
2023-05-06T14:46:16.328Z,3.25
2023-05-06T14:48:43.429Z,2.40
2023-05-06T14:51:10.077Z,3.63
2023-05-06T14:53:36.612Z,2.83
2023-05-06T14:56:03.247Z,2.22
2023-05-06T14:58:29.830Z,3.08
2023-05-06T15:00:57.110Z,1.95
2023-05-06T15:03:23.648Z,3.63
2023-05-06T15:05:51.068Z,3.97
2023-05-06T15:08:17.658Z,3.97
2023-05-06T15:10:44.416Z,2.58
2023-05-06T15:13:11.005Z,2.85
2023-05-06T15:15:37.565Z,2.30
2023-05-06T15:18:13.605Z,2.35
2023-05-06T15:20:40.077Z,2.03
2023-05-06T15:23:06.570Z,3.03
2023-05-06T15:25:36.025Z,3.15
2023-05-06T15:28:04.602Z,2.67
2023-05-06T15:30:31.078Z,2.33
2023-05-06T15:32:57.484Z,2.88
2023-05-06T15:35:24.049Z,3.55
2023-05-06T15:37:55.845Z,3.60
2023-05-06T15:40:25.518Z,3.73
2023-05-06T15:42:52.473Z,3.88
2023-05-06T15:45:19.802Z,3.72
2023-05-06T15:47:48.056Z,4.63
2023-05-06T15:50:25.199Z,4.40
2023-05-06T15:52:58.777Z,5.87
2023-05-06T15:55:26.608Z,2.28
2023-05-06T15:57:54.567Z,3.13
2023-05-06T16:00:21.951Z,4.10
2023-05-06T16:02:48.687Z,3.65
2023-05-06T16:05:15.790Z,4.67
2023-05-06T16:07:42.457Z,2.33
2023-05-06T16:10:08.921Z,3.40
2023-05-06T16:12:35.631Z,3.70
2023-05-06T16:15:03.357Z,5.05
2023-05-06T16:17:30.402Z,3.97
2023-05-06T16:19:56.934Z,8.68
2023-05-06T16:22:23.406Z,19.50
2023-05-06T16:24:49.827Z,17.23
2023-05-06T16:27:16.427Z,6.97
2023-05-06T16:29:43.037Z,3.88
2023-05-06T16:32:09.554Z,4.18
2023-05-06T16:34:38.964Z,2.15
2023-05-06T16:37:07.911Z,3.92
2023-05-06T16:39:34.440Z,3.90
2023-05-06T16:42:01.842Z,4.32
2023-05-06T16:44:29.311Z,3.20
2023-05-06T16:46:56.083Z,4.05
2023-05-06T16:49:22.566Z,2.30
2023-05-06T16:51:49.108Z,3.22
2023-05-06T16:54:15.657Z,2.80
2023-05-06T16:59:22.754Z,5.10
2023-05-06T17:01:50.396Z,3.60
2023-05-06T17:04:20.479Z,4.00
2023-05-06T17:06:46.986Z,3.45
2023-05-06T17:09:13.472Z,5.20
2023-05-06T17:11:39.845Z,2.83
2023-05-06T17:14:06.520Z,3.20
2023-05-06T17:16:33.045Z,2.05
2023-05-06T17:18:59.560Z,4.80
2023-05-06T17:21:26.849Z,2.20
2023-05-06T17:23:54.477Z,3.00
2023-05-06T17:26:21.693Z,1.83
2023-05-06T17:28:48.316Z,3.33
2023-05-06T17:31:15.689Z,8.30
2023-05-06T17:33:42.444Z,4.35
2023-05-06T17:36:09.148Z,2.00
2023-05-06T17:38:35.825Z,2.55
2023-05-06T17:41:02.211Z,2.30
2023-05-06T17:43:28.878Z,2.38
2023-05-06T17:45:56.123Z,1.73
2023-05-06T17:48:23.004Z,3.17
2023-05-06T17:50:49.414Z,3.17
2023-05-06T17:53:16.101Z,2.88
2023-05-06T17:55:42.829Z,4.30
2023-05-06T17:58:09.290Z,2.25
2023-05-06T18:00:36.853Z,2.65
2023-05-06T18:03:03.379Z,4.45
2023-05-06T18:05:30.137Z,2.77
2023-05-06T18:07:56.700Z,4.35
2023-05-06T18:10:23.144Z,3.35
2023-05-06T18:12:49.960Z,1.98
2023-05-06T18:15:16.757Z,4.07
2023-05-06T18:17:43.337Z,2.90
2023-05-06T18:20:10.317Z,3.30
2023-05-06T18:22:37.152Z,2.88
2023-05-06T18:25:04.380Z,3.13
2023-05-06T18:27:32.302Z,4.38
2023-05-06T18:29:59.537Z,5.13
2023-05-06T18:32:26.108Z,6.13
2023-05-06T18:34:52.649Z,7.03
2023-05-06T18:37:19.083Z,3.88
2023-05-06T18:39:45.840Z,6.40
2023-05-06T18:42:12.221Z,4.00
2023-05-06T18:44:38.648Z,3.88
2023-05-06T18:47:05.811Z,6.25
2023-05-06T18:49:32.255Z,4.43
2023-05-06T18:51:58.855Z,5.85
2023-05-06T18:54:25.353Z,6.87
2023-05-06T18:56:51.897Z,7.07
2023-05-06T18:59:21.736Z,6.93
2023-05-06T19:01:48.458Z,6.63
2023-05-06T19:04:15.149Z,6.93
2023-05-06T19:06:41.792Z,5.40
2023-05-06T19:09:08.335Z,6.38
2023-05-06T19:11:35.043Z,6.93
2023-05-06T19:14:01.568Z,5.88
2023-05-06T19:16:28.050Z,7.45
2023-05-06T19:18:54.494Z,6.70
2023-05-06T19:21:21.694Z,6.53
2023-05-06T19:23:48.219Z,6.32
2023-05-06T19:26:14.815Z,8.02
2023-05-06T19:28:41.369Z,8.75
2023-05-06T19:31:11.886Z,6.87
2023-05-06T19:33:39.221Z,6.68
2023-05-06T19:36:06.403Z,4.93
2023-05-06T19:38:33.031Z,6.25
2023-05-06T19:40:59.526Z,6.43
2023-05-06T19:43:26.001Z,6.30
2023-05-06T19:45:52.611Z,7.70
2023-05-06T19:48:19.707Z,9.20
2023-05-06T19:50:46.328Z,7.85
2023-05-06T19:53:12.811Z,6.03
2023-05-06T19:55:39.245Z,8.53
2023-05-06T19:58:05.980Z,8.50
2023-05-06T20:00:32.521Z,5.72
2023-05-06T20:03:00.207Z,7.93
2023-05-06T20:05:32.023Z,6.93
2023-05-06T20:07:59.966Z,7.17
2023-05-06T20:10:28.021Z,10.30
2023-05-06T20:12:57.335Z,8.27
2023-05-06T20:15:24.484Z,7.97
2023-05-06T20:17:50.928Z,7.18
2023-05-06T20:20:17.678Z,8.40
2023-05-06T20:22:44.138Z,7.90
2023-05-06T20:25:13.028Z,6.38
2023-05-06T20:27:39.787Z,8.13
2023-05-06T20:30:08.268Z,6.80
2023-05-06T20:32:35.460Z,7.60
2023-05-06T20:35:01.982Z,7.65
2023-05-06T20:37:29.403Z,7.90
2023-05-06T20:39:56.177Z,7.20
2023-05-06T20:42:22.781Z,8.02
2023-05-06T20:44:51.030Z,7.27
2023-05-06T20:47:18.287Z,7.53
2023-05-06T20:49:44.873Z,8.27
2023-05-06T20:52:14.509Z,8.50
2023-05-06T20:54:45.259Z,11.80
2023-05-06T20:57:14.080Z,7.57
2023-05-06T20:59:40.800Z,9.70
2023-05-06T21:02:07.274Z,8.93
2023-05-06T21:04:33.872Z,7.13
2023-05-06T21:07:00.620Z,6.93
2023-05-06T21:09:29.148Z,5.90
2023-05-06T21:11:56.355Z,6.75
2023-05-06T21:14:24.746Z,10.75
2023-05-06T21:16:52.414Z,6.97
2023-05-06T21:19:19.693Z,8.10
2023-05-06T21:21:46.178Z,6.77
2023-05-06T21:24:13.124Z,7.38
2023-05-06T21:26:40.099Z,7.70
2023-05-06T21:29:06.694Z,6.93
2023-05-06T21:31:33.158Z,6.82
2023-05-06T21:33:59.867Z,7.33
2023-05-06T21:36:27.131Z,7.55
2023-05-06T21:39:05.593Z,12.35
2023-05-06T21:41:31.955Z,8.05
2023-05-06T21:43:58.456Z,8.98
2023-05-06T21:46:25.057Z,8.83
2023-05-06T21:48:52.003Z,6.13
2023-05-06T21:51:18.388Z,6.53
2023-05-06T21:53:49.194Z,8.05
2023-05-06T21:56:16.319Z,8.85
2023-05-06T21:58:42.798Z,6.77
2023-05-06T22:01:09.447Z,7.97
2023-05-06T22:03:36.113Z,8.52
2023-05-06T22:06:05.982Z,8.23
2023-05-06T22:08:32.494Z,7.78
2023-05-06T22:10:58.936Z,7.50
2023-05-06T22:13:26.713Z,8.20
2023-05-06T22:15:53.864Z,13.38
2023-05-06T22:18:20.441Z,8.32
2023-05-06T22:20:49.269Z,6.95
2023-05-06T22:23:15.760Z,8.40
2023-05-06T22:25:42.135Z,6.47
2023-05-06T22:28:08.522Z,7.03
2023-05-06T22:30:35.066Z,6.78
2023-05-06T22:33:01.760Z,7.13
2023-05-06T22:35:28.393Z,6.30
2023-05-06T22:37:54.760Z,6.05
2023-05-06T22:40:21.316Z,5.32
2023-05-06T22:42:48.356Z,5.20
2023-05-06T22:45:14.773Z,11.20
2023-05-06T22:47:41.260Z,7.73
2023-05-06T22:50:08.111Z,5.65
2023-05-06T22:52:34.688Z,6.85
2023-05-06T22:55:01.161Z,6.18
2023-05-06T22:57:27.658Z,8.15
2023-05-06T22:59:54.287Z,7.03
2023-05-06T23:02:20.816Z,7.47
2023-05-06T23:04:47.302Z,11.15
2023-05-06T23:07:14.198Z,9.77
2023-05-06T23:09:40.806Z,6.97
2023-05-06T23:12:07.772Z,9.43
2023-05-06T23:14:34.299Z,7.82
2023-05-06T23:17:00.730Z,6.68
2023-05-06T23:19:27.227Z,8.77
2023-05-06T23:21:53.768Z,8.30
2023-05-06T23:24:20.169Z,7.43
2023-05-06T23:26:46.608Z,6.90
2023-05-06T23:29:13.130Z,7.95
2023-05-06T23:31:39.721Z,11.43
2023-05-06T23:34:06.446Z,8.32
2023-05-06T23:36:34.037Z,6.37
2023-05-06T23:39:00.764Z,7.35
2023-05-06T23:41:27.659Z,6.57
2023-05-06T23:43:54.231Z,5.43
2023-05-06T23:46:20.878Z,8.57
2023-05-06T23:48:47.353Z,6.33
2023-05-06T23:51:13.783Z,6.45
2023-05-06T23:53:40.850Z,7.30
2023-05-06T23:56:07.491Z,7.68
2023-05-06T23:58:34.044Z,6.00
